Time,TemperatureF,DewpointF,PressureIn,WindDirection,WindDirectionDegrees,WindSpeedMPH,WindSpeedGustMPH,Humidity,HourlyPrecipIn,Conditions,Clouds,dailyrainin,SoftwareType,DateUTC
2018-02-20 00:02:00,12.6,2.6,30.07,NNW,337,2.2,2.5,64,0.00,,,0.00,LWC V1.12 B30,2018-02-20 08:02:00,
2018-02-20 00:07:00,12.4,2.4,30.07,NNW,337,0.0,0.0,64,0.00,,,0.00,LWC V1.12 B30,2018-02-20 08:07:00,
2018-02-20 00:12:00,12.2,2.2,30.07,NNW,337,0.0,0.0,64,0.00,,,0.00,LWC V1.12 B30,2018-02-20 08:12:00,
2018-02-20 00:17:00,12.0,2.0,30.07,NNW,337,0.0,0.0,64,0.00,,,0.00,LWC V1.12 B30,2018-02-20 08:17:00,
2018-02-20 00:22:00,12.0,2.0,30.07,NNW,337,0.0,0.0,64,0.00,,,0.00,LWC V1.12 B30,2018-02-20 08:22:00,
2018-02-20 00:28:00,12.0,2.0,30.06,NNW,337,0.0,2.2,64,0.00,,,0.00,LWC V1.12 B30,2018-02-20 08:28:00,
2018-02-20 00:33:00,11.8,1.9,30.06,NNW,337,0.0,0.0,64,0.00,,,0.00,LWC V1.12 B30,2018-02-20 08:33:00,
2018-02-20 00:38:00,11.8,1.9,30.06,NNW,337,0.0,0.0,64,0.00,,,0.00,LWC V1.12 B30,2018-02-20 08:38:00,
2018-02-20 00:43:00,11.7,2.0,30.06,NNW,337,0.0,0.0,65,0.00,,,0.00,LWC V1.12 B30,2018-02-20 08:43:00,
2018-02-20 00:48:00,11.5,1.9,30.06,NNW,337,0.0,0.0,65,0.00,,,0.00,LWC V1.12 B30,2018-02-20 08:48:00,
2018-02-20 00:53:00,11.5,1.9,30.06,NNW,337,0.0,0.0,65,0.00,,,0.00,LWC V1.12 B30,2018-02-20 08:53:00,
2018-02-20 00:58:00,11.5,1.9,30.06,NNW,337,0.0,0.0,65,0.00,,,0.00,LWC V1.12 B30,2018-02-20 08:58:00,
2018-02-20 01:04:00,11.5,1.9,30.06,NNW,337,0.0,0.0,65,0.00,,,0.00,LWC V1.12 B30,2018-02-20 09:04:00,
2018-02-20 01:09:00,11.5,1.9,30.06,NNW,337,0.0,0.0,65,0.00,,,0.00,LWC V1.12 B30,2018-02-20 09:09:00,
2018-02-20 01:18:00,11.5,1.9,30.06,NNW,337,0.0,0.0,65,0.00,,,0.00,LWC V1.12 B30,2018-02-20 09:18:00,
2018-02-20 01:23:00,11.7,2.0,30.05,NNW,337,0.0,0.0,65,0.00,,,0.00,LWC V1.12 B30,2018-02-20 09:23:00,
2018-02-20 01:28:00,11.5,2.2,30.05,NNW,337,0.0,0.0,66,0.00,,,0.00,LWC V1.12 B30,2018-02-20 09:28:00,
2018-02-20 01:33:00,11.7,2.4,30.05,NNW,337,0.0,0.0,66,0.00,,,0.00,LWC V1.12 B30,2018-02-20 09:33:00,
2018-02-20 01:39:00,11.8,2.6,30.05,NNW,337,0.0,0.0,66,0.00,,,0.00,LWC V1.12 B30,2018-02-20 09:39:00,
2018-02-20 01:44:00,11.7,2.4,30.05,NNW,337,0.0,0.0,66,0.00,,,0.00,LWC V1.12 B30,2018-02-20 09:44:00,
2018-02-20 01:49:00,11.8,2.6,30.05,NNW,337,0.0,0.0,66,0.00,,,0.00,LWC V1.12 B30,2018-02-20 09:49:00,
2018-02-20 01:54:00,11.8,2.6,30.05,NNW,337,0.0,0.0,66,0.00,,,0.00,LWC V1.12 B30,2018-02-20 09:54:00,
2018-02-20 01:59:00,11.8,2.6,30.05,NNW,337,0.0,0.0,66,0.00,,,0.00,LWC V1.12 B30,2018-02-20 09:59:00,
2018-02-20 02:04:00,12.0,2.7,30.05,NNW,337,0.0,0.0,66,0.00,,,0.00,LWC V1.12 B30,2018-02-20 10:04:00,
2018-02-20 02:09:00,12.0,2.7,30.05,NNW,337,0.0,0.0,66,0.00,,,0.00,LWC V1.12 B30,2018-02-20 10:09:00,
2018-02-20 02:14:00,12.0,2.7,30.05,NNW,337,0.0,0.0,66,0.00,,,0.00,LWC V1.12 B30,2018-02-20 10:14:00,
2018-02-20 02:19:00,12.0,2.7,30.05,NNW,337,0.0,0.0,66,0.00,,,0.00,LWC V1.12 B30,2018-02-20 10:19:00,
2018-02-20 02:24:00,12.0,2.7,30.06,NNW,337,0.0,0.0,66,0.00,,,0.00,LWC V1.12 B30,2018-02-20 10:24:00,
2018-02-20 02:29:00,11.8,2.9,30.06,NNW,337,0.0,0.0,67,0.00,,,0.00,LWC V1.12 B30,2018-02-20 10:29:00,
2018-02-20 02:34:00,11.8,2.6,30.05,NNW,337,0.0,0.0,66,0.00,,,0.00,LWC V1.12 B30,2018-02-20 10:34:00,
2018-02-20 02:39:00,11.8,2.9,30.06,SW,225,1.6,3.6,67,0.00,,,0.00,LWC V1.12 B30,2018-02-20 10:39:00,
2018-02-20 02:44:00,12.0,3.1,30.05,SW,225,0.0,0.0,67,0.00,,,0.00,LWC V1.12 B30,2018-02-20 10:44:00,
2018-02-20 02:49:00,12.0,3.1,30.05,North,0,0.0,2.5,67,0.00,,,0.00,LWC V1.12 B30,2018-02-20 10:49:00,
2018-02-20 02:54:00,12.0,3.1,30.06,North,0,0.0,0.0,67,0.00,,,0.00,LWC V1.12 B30,2018-02-20 10:54:00,
2018-02-20 02:59:00,12.0,2.7,30.06,North,0,0.0,0.0,66,0.00,,,0.00,LWC V1.12 B30,2018-02-20 10:59:00,
2018-02-20 03:04:00,12.0,3.1,30.06,NNW,337,0.0,0.0,67,0.00,,,0.00,LWC V1.12 B30,2018-02-20 11:04:00,
2018-02-20 03:09:00,12.0,3.1,30.06,NNW,337,0.0,0.0,67,0.00,,,0.00,LWC V1.12 B30,2018-02-20 11:09:00,
2018-02-20 03:14:00,12.0,3.1,30.06,NNW,337,0.0,0.0,67,0.00,,,0.00,LWC V1.12 B30,2018-02-20 11:14:00,
2018-02-20 03:19:00,12.0,3.1,30.06,NNW,337,0.0,0.0,67,0.00,,,0.00,LWC V1.12 B30,2018-02-20 11:19:00,
2018-02-20 03:24:00,12.0,3.1,30.06,North,0,0.0,1.6,67,0.00,,,0.00,LWC V1.12 B30,2018-02-20 11:24:00,
2018-02-20 03:29:00,12.0,3.1,30.06,North,0,0.0,1.1,67,0.00,,,0.00,LWC V1.12 B30,2018-02-20 11:29:00,
2018-02-20 03:34:00,12.0,3.1,30.06,North,0,0.0,0.0,67,0.00,,,0.00,LWC V1.12 B30,2018-02-20 11:34:00,
2018-02-20 03:39:00,12.0,3.1,30.05,North,0,0.0,0.0,67,0.00,,,0.00,LWC V1.12 B30,2018-02-20 11:39:00,
2018-02-20 03:44:00,12.0,3.1,30.06,North,0,0.0,0.0,67,0.00,,,0.00,LWC V1.12 B30,2018-02-20 11:44:00,
2018-02-20 03:49:00,12.2,3.3,30.05,North,0,0.0,0.0,67,0.00,,,0.00,LWC V1.12 B30,2018-02-20 11:49:00,
2018-02-20 03:54:00,12.2,3.6,30.06,North,0,0.0,0.0,68,0.00,,,0.00,LWC V1.12 B30,2018-02-20 11:54:00,
2018-02-20 03:59:00,12.2,3.6,30.06,North,0,1.1,1.6,68,0.00,,,0.00,LWC V1.12 B30,2018-02-20 11:59:00,
2018-02-20 04:04:00,12.2,3.6,30.06,North,0,0.0,0.0,68,0.00,,,0.00,LWC V1.12 B30,2018-02-20 12:04:00,
2018-02-20 04:09:00,12.2,3.6,30.06,NNW,337,0.0,2.2,68,0.00,,,0.00,LWC V1.12 B30,2018-02-20 12:09:00,
2018-02-20 04:14:00,12.4,3.8,30.06,NNW,337,0.0,1.6,68,0.00,,,0.00,LWC V1.12 B30,2018-02-20 12:14:00,
2018-02-20 04:19:00,12.2,3.6,30.06,NNW,337,0.0,0.0,68,0.00,,,0.00,LWC V1.12 B30,2018-02-20 12:19:00,
2018-02-20 04:24:00,12.2,3.6,30.07,NNW,337,0.0,0.0,68,0.00,,,0.00,LWC V1.12 B30,2018-02-20 12:24:00,
2018-02-20 04:29:00,12.2,3.6,30.07,North,0,0.0,0.0,68,0.00,,,0.00,LWC V1.12 B30,2018-02-20 12:29:00,
2018-02-20 04:34:00,12.2,3.6,30.07,North,0,0.0,0.0,68,0.00,,,0.00,LWC V1.12 B30,2018-02-20 12:34:00,
2018-02-20 04:39:00,12.2,3.6,30.07,North,0,0.0,0.0,68,0.00,,,0.00,LWC V1.12 B30,2018-02-20 12:39:00,
2018-02-20 04:44:00,12.2,3.6,30.07,NNW,337,0.0,0.0,68,0.00,,,0.00,LWC V1.12 B30,2018-02-20 12:44:00,
2018-02-20 04:49:00,12.2,3.6,30.07,NNW,337,0.0,0.0,68,0.00,,,0.00,LWC V1.12 B30,2018-02-20 12:49:00,
2018-02-20 04:54:00,12.2,3.9,30.08,NNW,337,0.0,0.0,69,0.00,,,0.00,LWC V1.12 B30,2018-02-20 12:54:00,
2018-02-20 04:59:00,12.4,4.1,30.08,NNW,337,0.0,0.0,69,0.00,,,0.00,LWC V1.12 B30,2018-02-20 12:59:00,
2018-02-20 05:04:00,12.4,4.1,30.09,NW,315,0.0,0.0,69,0.00,,,0.00,LWC V1.12 B30,2018-02-20 13:04:00,
2018-02-20 05:09:00,12.4,4.1,30.09,NNW,337,0.0,0.0,69,0.00,,,0.00,LWC V1.12 B30,2018-02-20 13:09:00,
2018-02-20 05:14:00,12.2,3.9,30.09,NNW,337,0.0,0.0,69,0.00,,,0.00,LWC V1.12 B30,2018-02-20 13:14:00,
2018-02-20 05:19:00,12.2,3.9,30.09,NNW,337,0.0,0.0,69,0.00,,,0.00,LWC V1.12 B30,2018-02-20 13:19:00,
2018-02-20 05:24:00,12.4,4.1,30.10,NNW,337,0.0,0.0,69,0.00,,,0.00,LWC V1.12 B30,2018-02-20 13:24:00,
2018-02-20 05:29:00,12.4,4.1,30.10,NNW,337,0.0,0.0,69,0.00,,,0.00,LWC V1.12 B30,2018-02-20 13:29:00,
2018-02-20 05:34:00,12.6,4.3,30.11,NNW,337,0.0,0.0,69,0.00,,,0.00,LWC V1.12 B30,2018-02-20 13:34:00,
2018-02-20 05:39:00,12.6,4.3,30.11,NNW,337,0.0,0.0,69,0.00,,,0.00,LWC V1.12 B30,2018-02-20 13:39:00,
2018-02-20 05:44:00,12.7,4.5,30.11,NNW,337,0.0,0.0,69,0.00,,,0.00,LWC V1.12 B30,2018-02-20 13:44:00,
2018-02-20 05:49:00,12.7,4.5,30.11,NNW,337,0.0,0.0,69,0.00,,,0.00,LWC V1.12 B30,2018-02-20 13:49:00,
2018-02-20 05:54:00,12.7,4.5,30.12,NNW,337,0.0,0.0,69,0.00,,,0.00,LWC V1.12 B30,2018-02-20 13:54:00,
2018-02-20 05:59:00,12.7,4.5,30.11,NNW,337,0.0,0.0,69,0.00,,,0.00,LWC V1.12 B30,2018-02-20 13:59:00,
2018-02-20 06:04:00,12.7,4.5,30.11,NNW,337,0.0,0.0,69,0.00,,,0.00,LWC V1.12 B30,2018-02-20 14:04:00,
2018-02-20 06:09:00,12.7,4.5,30.12,WNW,292,0.0,1.8,69,0.00,,,0.00,LWC V1.12 B30,2018-02-20 14:09:00,
2018-02-20 06:14:00,12.7,4.5,30.12,WNW,292,0.0,0.0,69,0.00,,,0.00,LWC V1.12 B30,2018-02-20 14:14:00,
2018-02-20 06:19:00,12.7,4.5,30.12,WNW,292,0.0,0.0,69,0.00,,,0.00,LWC V1.12 B30,2018-02-20 14:19:00,
2018-02-20 06:24:00,12.7,4.5,30.13,NW,315,0.0,0.0,69,0.00,,,0.00,LWC V1.12 B30,2018-02-20 14:24:00,
2018-02-20 06:29:00,12.7,4.8,30.12,East,90,0.0,0.0,70,0.00,,,0.00,LWC V1.12 B30,2018-02-20 14:29:00,
2018-02-20 06:34:00,12.7,4.8,30.12,East,90,0.0,0.0,70,0.00,,,0.00,LWC V1.12 B30,2018-02-20 14:34:00,
2018-02-20 06:39:00,12.7,4.5,30.12,NNE,22,0.0,0.0,69,0.00,,,0.00,LWC V1.12 B30,2018-02-20 14:39:00,
2018-02-20 06:44:00,12.7,4.8,30.12,NNE,22,0.0,0.0,70,0.00,,,0.00,LWC V1.12 B30,2018-02-20 14:44:00,
2018-02-20 06:49:00,12.7,4.8,30.12,NNE,22,0.0,0.0,70,0.00,,,0.00,LWC V1.12 B30,2018-02-20 14:49:00,
2018-02-20 06:54:00,12.9,5.0,30.12,WNW,292,0.0,0.0,70,0.00,,,0.00,LWC V1.12 B30,2018-02-20 14:54:00,
2018-02-20 06:59:00,12.9,5.0,30.12,WNW,292,0.0,0.0,70,0.00,,,0.00,LWC V1.12 B30,2018-02-20 14:59:00,
2018-02-20 07:04:00,12.7,4.8,30.12,WNW,292,0.0,0.0,70,0.00,,,0.00,LWC V1.12 B30,2018-02-20 15:04:00,
2018-02-20 07:09:00,12.9,5.0,30.12,WNW,292,0.0,0.0,70,0.00,,,0.00,LWC V1.12 B30,2018-02-20 15:09:00,
2018-02-20 07:14:00,12.9,5.0,30.12,WNW,292,0.0,0.0,70,0.00,,,0.00,LWC V1.12 B30,2018-02-20 15:14:00,
2018-02-20 07:19:00,12.9,5.0,30.12,WNW,292,0.0,0.0,70,0.00,,,0.00,LWC V1.12 B30,2018-02-20 15:19:00,
2018-02-20 07:24:00,13.1,5.2,30.12,WNW,292,0.0,0.0,70,0.00,,,0.00,LWC V1.12 B30,2018-02-20 15:24:00,
2018-02-20 07:29:00,13.3,5.4,30.13,WNW,292,0.0,0.0,70,0.00,,,0.00,LWC V1.12 B30,2018-02-20 15:29:00,
2018-02-20 07:34:00,13.3,5.4,30.13,WNW,292,0.0,0.0,70,0.00,,,0.00,LWC V1.12 B30,2018-02-20 15:34:00,
2018-02-20 07:39:00,13.8,5.9,30.12,ENE,67,0.0,0.0,70,0.00,,,0.00,LWC V1.12 B30,2018-02-20 15:39:00,
2018-02-20 07:44:00,13.8,5.9,30.12,East,90,0.0,0.0,70,0.00,,,0.00,LWC V1.12 B30,2018-02-20 15:44:00,
2018-02-20 07:49:00,14.2,6.2,30.13,East,90,0.0,0.0,70,0.00,,,0.00,LWC V1.12 B30,2018-02-20 15:49:00,
2018-02-20 07:54:00,14.5,6.6,30.12,East,90,0.0,0.0,70,0.00,,,0.00,LWC V1.12 B30,2018-02-20 15:54:00,
2018-02-20 07:59:00,14.7,6.7,30.13,East,90,0.0,0.0,70,0.00,,,0.00,LWC V1.12 B30,2018-02-20 15:59:00,
2018-02-20 08:04:00,14.7,6.7,30.13,North,0,0.0,1.3,70,0.00,,,0.00,LWC V1.12 B30,2018-02-20 16:04:00,
2018-02-20 08:09:00,14.7,6.4,30.12,North,0,0.0,2.5,69,0.00,,,0.00,LWC V1.12 B30,2018-02-20 16:09:00,
2018-02-20 08:14:00,14.7,6.4,30.13,NNW,337,1.1,1.1,69,0.00,,,0.00,LWC V1.12 B30,2018-02-20 16:14:00,
2018-02-20 08:19:00,14.7,6.4,30.13,WNW,292,0.0,0.0,69,0.00,,,0.00,LWC V1.12 B30,2018-02-20 16:19:00,
2018-02-20 08:24:00,15.1,6.7,30.13,NNW,337,2.5,2.9,69,0.00,,,0.00,LWC V1.12 B30,2018-02-20 16:24:00,
2018-02-20 08:29:00,15.4,7.0,30.13,NNW,337,1.6,1.6,69,0.00,,,0.00,LWC V1.12 B30,2018-02-20 16:29:00,
2018-02-20 08:34:00,15.6,6.9,30.13,NNW,337,2.0,2.9,68,0.00,,,0.00,LWC V1.12 B30,2018-02-20 16:34:00,
2018-02-20 08:39:00,15.8,7.2,30.13,NNW,337,1.8,2.9,68,0.00,,,0.00,LWC V1.12 B30,2018-02-20 16:39:00,
2018-02-20 08:44:00,16.2,7.4,30.13,NNW,337,2.2,2.5,68,0.00,,,0.00,LWC V1.12 B30,2018-02-20 16:44:00,
2018-02-20 08:49:00,16.2,7.0,30.13,North,0,2.0,3.1,67,0.00,,,0.00,LWC V1.12 B30,2018-02-20 16:49:00,
2018-02-20 08:54:00,16.3,7.2,30.13,North,0,0.0,0.0,67,0.00,,,0.00,LWC V1.12 B30,2018-02-20 16:54:00,
2018-02-20 08:59:00,16.7,7.6,30.13,NNW,337,1.6,2.5,67,0.00,,,0.00,LWC V1.12 B30,2018-02-20 16:59:00,
2018-02-20 09:04:00,16.9,7.8,30.12,WNW,292,0.9,3.8,67,0.00,,,0.00,LWC V1.12 B30,2018-02-20 17:04:00,
2018-02-20 09:09:00,16.9,7.8,30.12,NNW,337,2.5,2.5,67,0.00,,,0.00,LWC V1.12 B30,2018-02-20 17:09:00,
2018-02-20 09:14:00,17.2,7.8,30.12,NNW,337,2.0,3.8,66,0.00,,,0.00,LWC V1.12 B30,2018-02-20 17:14:00,
2018-02-20 09:19:00,17.4,8.0,30.12,North,0,0.0,2.5,66,0.00,,,0.00,LWC V1.12 B30,2018-02-20 17:19:00,
2018-02-20 09:24:00,17.8,8.3,30.12,North,0,1.8,4.2,66,0.00,,,0.00,LWC V1.12 B30,2018-02-20 17:24:00,
2018-02-20 09:29:00,18.1,8.6,30.12,NNW,337,3.4,3.4,66,0.00,,,0.00,LWC V1.12 B30,2018-02-20 17:29:00,
2018-02-20 09:34:00,18.3,8.4,30.12,WNW,292,0.0,2.0,65,0.00,,,0.00,LWC V1.12 B30,2018-02-20 17:34:00,
2018-02-20 09:39:00,18.7,8.4,30.12,NW,315,2.0,2.0,64,0.00,,,0.00,LWC V1.12 B30,2018-02-20 17:39:00,
2018-02-20 09:44:00,18.9,8.6,30.12,NE,45,0.0,2.9,64,0.00,,,0.00,LWC V1.12 B30,2018-02-20 17:44:00,
2018-02-20 09:49:00,19.4,9.1,30.12,NW,315,0.0,4.0,64,0.00,,,0.00,LWC V1.12 B30,2018-02-20 17:49:00,
2018-02-20 09:54:00,19.6,8.9,30.12,NNW,337,2.5,3.1,63,0.00,,,0.00,LWC V1.12 B30,2018-02-20 17:54:00,
2018-02-20 09:59:00,19.4,8.7,30.12,West,270,0.0,2.5,63,0.00,,,0.00,LWC V1.12 B30,2018-02-20 17:59:00,
2018-02-20 10:04:00,19.6,8.9,30.12,North,0,0.0,2.9,63,0.00,,,0.00,LWC V1.12 B30,2018-02-20 18:04:00,
2018-02-20 10:09:00,19.6,8.9,30.12,NW,315,0.0,1.3,63,0.00,,,0.00,LWC V1.12 B30,2018-02-20 18:09:00,
2018-02-20 10:14:00,19.4,8.7,30.12,NNW,337,1.1,3.8,63,0.00,,,0.00,LWC V1.12 B30,2018-02-20 18:14:00,
2018-02-20 10:19:00,19.4,8.7,30.12,NW,315,0.0,0.0,63,0.00,,,0.00,LWC V1.12 B30,2018-02-20 18:19:00,
2018-02-20 10:24:00,19.8,9.1,30.12,West,270,2.2,2.2,63,0.00,,,0.00,LWC V1.12 B30,2018-02-20 18:24:00,
2018-02-20 10:29:00,19.9,9.3,30.11,WNW,292,0.0,2.2,63,0.00,,,0.00,LWC V1.12 B30,2018-02-20 18:29:00,
2018-02-20 10:34:00,20.5,9.8,30.11,SSW,202,0.0,0.0,63,0.00,,,0.00,LWC V1.12 B30,2018-02-20 18:34:00,
2018-02-20 10:39:00,20.8,9.8,30.11,WNW,292,2.0,3.8,62,0.00,,,0.00,LWC V1.12 B30,2018-02-20 18:39:00,
2018-02-20 10:44:00,20.8,9.8,30.11,SSW,202,2.2,3.1,62,0.00,,,0.00,LWC V1.12 B30,2018-02-20 18:44:00,
2018-02-20 10:49:00,21.0,10.0,30.11,South,180,2.7,5.8,62,0.00,,,0.00,LWC V1.12 B30,2018-02-20 18:49:00,
2018-02-20 10:54:00,21.7,10.3,30.11,South,180,2.0,4.2,61,0.00,,,0.00,LWC V1.12 B30,2018-02-20 18:54:00,
2018-02-20 10:59:00,22.3,10.8,30.11,South,180,0.0,1.1,61,0.00,,,0.00,LWC V1.12 B30,2018-02-20 18:59:00,
2018-02-20 11:04:00,23.2,10.9,30.10,ENE,67,1.3,2.2,59,0.00,,,0.00,LWC V1.12 B30,2018-02-20 19:04:00,
2018-02-20 11:09:00,23.5,10.9,30.10,SE,135,0.9,5.8,58,0.00,,,0.00,LWC V1.12 B30,2018-02-20 19:09:00,
2018-02-20 11:14:00,23.9,10.8,30.11,SSW,202,0.0,3.4,57,0.00,,,0.00,LWC V1.12 B30,2018-02-20 19:14:00,
2018-02-20 11:19:00,24.4,10.9,30.10,SSW,202,8.3,8.3,56,0.00,,,0.00,LWC V1.12 B30,2018-02-20 19:19:00,
2018-02-20 11:24:00,24.6,11.1,30.10,SSE,157,3.4,5.1,56,0.00,,,0.00,LWC V1.12 B30,2018-02-20 19:24:00,
2018-02-20 11:29:00,25.2,11.2,30.10,South,180,9.8,10.1,55,0.00,,,0.00,LWC V1.12 B30,2018-02-20 19:29:00,
2018-02-20 11:34:00,25.3,10.9,30.10,South,180,2.9,6.7,54,0.00,,,0.00,LWC V1.12 B30,2018-02-20 19:34:00,
2018-02-20 11:39:00,25.5,11.1,30.10,South,180,1.6,4.7,54,0.00,,,0.00,LWC V1.12 B30,2018-02-20 19:39:00,
2018-02-20 11:44:00,25.5,11.1,30.10,SSE,157,8.7,8.7,54,0.00,,,0.00,LWC V1.12 B30,2018-02-20 19:44:00,
2018-02-20 11:49:00,25.7,11.2,30.10,SSE,157,6.0,6.0,54,0.00,,,0.00,LWC V1.12 B30,2018-02-20 19:49:00,
2018-02-20 11:54:00,25.9,11.0,30.10,SSE,157,3.4,5.8,53,0.00,,,0.00,LWC V1.12 B30,2018-02-20 19:54:00,
2018-02-20 11:59:00,25.9,10.6,30.10,SE,135,11.2,11.2,52,0.00,,,0.00,LWC V1.12 B30,2018-02-20 19:59:00,
2018-02-20 12:04:00,25.9,10.6,30.10,SSE,157,5.8,6.7,52,0.00,,,0.00,LWC V1.12 B30,2018-02-20 20:04:00,
2018-02-20 12:09:00,26.2,10.9,30.10,SSE,157,2.7,6.9,52,0.00,,,0.00,LWC V1.12 B30,2018-02-20 20:09:00,
2018-02-20 12:14:00,26.6,11.6,30.09,SSE,157,7.8,7.8,53,0.00,,,0.00,LWC V1.12 B30,2018-02-20 20:14:00,
2018-02-20 12:19:00,27.3,11.9,30.09,SSE,157,3.6,8.3,52,0.00,,,0.00,LWC V1.12 B30,2018-02-20 20:19:00,